sensor_id;sensor_type;location;lat;lon;timestamp;pressure;altitude;pressure_sealevel;temperature;humidity
22004;BME280;11166;48.692;8.182;2022-09-17T00:00:33;98500.34;;;12.44;85.59
22004;BME280;11166;48.692;8.182;2022-09-17T00:02:59;98504.53;;;12.45;87.57
22004;BME280;11166;48.692;8.182;2022-09-17T00:05:24;98503.97;;;12.43;87.15
22004;BME280;11166;48.692;8.182;2022-09-17T00:07:50;98505.91;;;12.48;88.25
22004;BME280;11166;48.692;8.182;2022-09-17T00:10:17;98504.25;;;12.35;86.94
22004;BME280;11166;48.692;8.182;2022-09-17T00:12:43;98507.25;;;12.32;88.02
22004;BME280;11166;48.692;8.182;2022-09-17T00:15:09;98509.75;;;12.21;87.52
22004;BME280;11166;48.692;8.182;2022-09-17T00:17:34;98514.34;;;12.25;89.10
22004;BME280;11166;48.692;8.182;2022-09-17T00:19:59;98509.63;;;12.16;87.76
22004;BME280;11166;48.692;8.182;2022-09-17T00:22:25;98511.88;;;12.05;88.46
22004;BME280;11166;48.692;8.182;2022-09-17T00:24:50;98505.13;;;11.98;89.32
22004;BME280;11166;48.692;8.182;2022-09-17T00:27:15;98503.44;;;11.85;89.26
22004;BME280;11166;48.692;8.182;2022-09-17T00:29:41;98503.66;;;11.77;89.76
22004;BME280;11166;48.692;8.182;2022-09-17T00:32:06;98504.28;;;11.72;90.13
22004;BME280;11166;48.692;8.182;2022-09-17T00:34:32;98505.81;;;11.87;91.69
22004;BME280;11166;48.692;8.182;2022-09-17T00:36:57;98508.75;;;11.97;90.01
22004;BME280;11166;48.692;8.182;2022-09-17T00:39:22;98513.53;;;12.00;88.94
22004;BME280;11166;48.692;8.182;2022-09-17T00:41:48;98515.91;;;12.01;88.44
22004;BME280;11166;48.692;8.182;2022-09-17T00:44:38;98503.97;;;11.94;88.32
22004;BME280;11166;48.692;8.182;2022-09-17T00:47:04;98497.38;;;11.91;88.57
22004;BME280;11166;48.692;8.182;2022-09-17T00:49:32;98494.69;;;12.04;89.82
22004;BME280;11166;48.692;8.182;2022-09-17T00:52:05;98496.13;;;12.25;89.31
22004;BME280;11166;48.692;8.182;2022-09-17T00:54:33;98496.53;;;12.47;89.41
22004;BME280;11166;48.692;8.182;2022-09-17T00:56:59;98495.09;;;12.51;86.56
22004;BME280;11166;48.692;8.182;2022-09-17T00:59:24;98504.00;;;12.62;88.40
22004;BME280;11166;48.692;8.182;2022-09-17T01:01:50;98505.00;;;12.61;87.40
22004;BME280;11166;48.692;8.182;2022-09-17T01:04:18;98503.09;;;12.50;84.30
22004;BME280;11166;48.692;8.182;2022-09-17T01:12:39;98508.56;;;12.17;87.09
22004;BME280;11166;48.692;8.182;2022-09-17T01:15:35;98515.84;;;12.08;89.61
22004;BME280;11166;48.692;8.182;2022-09-17T01:21:15;98526.25;;;12.08;89.71
22004;BME280;11166;48.692;8.182;2022-09-17T01:32:11;98532.88;;;12.04;89.15
22004;BME280;11166;48.692;8.182;2022-09-17T01:41:10;98533.88;;;11.71;89.71
22004;BME280;11166;48.692;8.182;2022-09-17T01:44:11;98532.09;;;11.65;87.23
22004;BME280;11166;48.692;8.182;2022-09-17T01:46:43;98525.72;;;11.61;87.68
22004;BME280;11166;48.692;8.182;2022-09-17T01:49:11;98532.13;;;11.59;88.31
22004;BME280;11166;48.692;8.182;2022-09-17T01:51:43;98532.63;;;11.43;88.52
22004;BME280;11166;48.692;8.182;2022-09-17T01:54:19;98526.75;;;11.54;91.15
22004;BME280;11166;48.692;8.182;2022-09-17T01:56:52;98535.94;;;11.56;91.24
22004;BME280;11166;48.692;8.182;2022-09-17T01:59:24;98536.91;;;11.62;92.88
22004;BME280;11166;48.692;8.182;2022-09-17T02:01:53;98536.06;;;11.68;91.16
22004;BME280;11166;48.692;8.182;2022-09-17T02:04:38;98535.06;;;11.75;92.10
22004;BME280;11166;48.692;8.182;2022-09-17T02:07:15;98539.16;;;11.90;90.26
22004;BME280;11166;48.692;8.182;2022-09-17T02:09:50;98538.03;;;11.86;88.31
22004;BME280;11166;48.692;8.182;2022-09-17T02:12:22;98538.88;;;11.66;88.43
22004;BME280;11166;48.692;8.182;2022-09-17T02:14:53;98538.53;;;11.56;88.48
22004;BME280;11166;48.692;8.182;2022-09-17T02:20:14;98547.28;;;11.62;93.52
22004;BME280;11166;48.692;8.182;2022-09-17T02:22:50;98543.25;;;11.72;91.33
22004;BME280;11166;48.692;8.182;2022-09-17T02:25:23;98544.00;;;11.86;91.66
22004;BME280;11166;48.692;8.182;2022-09-17T02:27:57;98538.97;;;11.91;87.77
22004;BME280;11166;48.692;8.182;2022-09-17T02:30:26;98531.97;;;11.92;88.04
22004;BME280;11166;48.692;8.182;2022-09-17T02:32:53;98540.97;;;11.89;88.46
22004;BME280;11166;48.692;8.182;2022-09-17T02:35:18;98541.16;;;11.94;90.77
22004;BME280;11166;48.692;8.182;2022-09-17T02:37:44;98537.13;;;11.98;88.55
22004;BME280;11166;48.692;8.182;2022-09-17T02:40:14;98536.84;;;11.82;87.05
22004;BME280;11166;48.692;8.182;2022-09-17T02:53:36;98538.34;;;11.58;89.04
22004;BME280;11166;48.692;8.182;2022-09-17T02:59:21;98530.97;;;11.48;89.13
22004;BME280;11166;48.692;8.182;2022-09-17T03:02:02;98539.72;;;11.60;91.54
22004;BME280;11166;48.692;8.182;2022-09-17T03:04:31;98533.56;;;11.55;89.62
22004;BME280;11166;48.692;8.182;2022-09-17T03:06:57;98532.16;;;11.52;89.89
22004;BME280;11166;48.692;8.182;2022-09-17T03:09:24;98526.16;;;11.52;89.67
22004;BME280;11166;48.692;8.182;2022-09-17T03:11:49;98532.63;;;11.36;88.45
22004;BME280;11166;48.692;8.182;2022-09-17T03:14:14;98528.66;;;11.27;89.35
22004;BME280;11166;48.692;8.182;2022-09-17T03:16:40;98534.22;;;11.37;91.72
22004;BME280;11166;48.692;8.182;2022-09-17T03:19:05;98538.22;;;11.39;89.90
22004;BME280;11166;48.692;8.182;2022-09-17T03:21:30;98539.84;;;11.34;89.25
22004;BME280;11166;48.692;8.182;2022-09-17T03:23:56;98542.66;;;11.26;89.40
22004;BME280;11166;48.692;8.182;2022-09-17T03:26:24;98554.03;;;11.25;90.50
22004;BME280;11166;48.692;8.182;2022-09-17T03:28:49;98553.09;;;11.13;90.83
22004;BME280;11166;48.692;8.182;2022-09-17T03:31:15;98557.84;;;11.22;93.05
22004;BME280;11166;48.692;8.182;2022-09-17T03:33:40;98554.69;;;11.14;92.07
22004;BME280;11166;48.692;8.182;2022-09-17T03:36:05;98557.28;;;11.07;91.07
22004;BME280;11166;48.692;8.182;2022-09-17T03:38:31;98563.91;;;10.96;91.09
22004;BME280;11166;48.692;8.182;2022-09-17T03:41:03;98570.13;;;10.89;92.22
22004;BME280;11166;48.692;8.182;2022-09-17T03:43:29;98560.72;;;10.81;92.52
22004;BME280;11166;48.692;8.182;2022-09-17T03:45:55;98568.16;;;10.78;93.14
22004;BME280;11166;48.692;8.182;2022-09-17T03:48:21;98564.34;;;10.80;93.45
22004;BME280;11166;48.692;8.182;2022-09-17T03:50:46;98576.31;;;10.81;92.34
22004;BME280;11166;48.692;8.182;2022-09-17T03:53:12;98575.94;;;10.78;92.57
22004;BME280;11166;48.692;8.182;2022-09-17T03:55:38;98576.31;;;10.75;93.35
22004;BME280;11166;48.692;8.182;2022-09-17T03:58:03;98583.91;;;10.76;93.82
22004;BME280;11166;48.692;8.182;2022-09-17T04:00:29;98572.91;;;10.81;94.37
22004;BME280;11166;48.692;8.182;2022-09-17T04:02:55;98565.94;;;10.75;92.95
22004;BME280;11166;48.692;8.182;2022-09-17T04:05:20;98583.72;;;10.78;94.55
22004;BME280;11166;48.692;8.182;2022-09-17T04:07:45;98576.13;;;10.76;93.19
22004;BME280;11166;48.692;8.182;2022-09-17T04:10:11;98579.91;;;10.87;94.32
22004;BME280;11166;48.692;8.182;2022-09-17T04:12:36;98574.69;;;10.93;93.30
22004;BME280;11166;48.692;8.182;2022-09-17T04:15:02;98575.88;;;10.97;92.19
22004;BME280;11166;48.692;8.182;2022-09-17T04:17:27;98572.09;;;10.93;91.45
22004;BME280;11166;48.692;8.182;2022-09-17T04:19:53;98570.13;;;10.89;90.47
22004;BME280;11166;48.692;8.182;2022-09-17T04:22:19;98573.91;;;10.99;92.81
22004;BME280;11166;48.692;8.182;2022-09-17T04:24:45;98578.09;;;11.00;91.91
22004;BME280;11166;48.692;8.182;2022-09-17T04:27:10;98577.88;;;10.95;91.48
22004;BME280;11166;48.692;8.182;2022-09-17T04:29:35;98589.50;;;10.93;92.62
22004;BME280;11166;48.692;8.182;2022-09-17T04:32:01;98594.69;;;10.86;91.93
22004;BME280;11166;48.692;8.182;2022-09-17T04:34:26;98589.28;;;10.88;91.96
22004;BME280;11166;48.692;8.182;2022-09-17T04:36:51;98589.69;;;10.91;92.06
22004;BME280;11166;48.692;8.182;2022-09-17T04:39:17;98600.66;;;10.87;90.46
22004;BME280;11166;48.692;8.182;2022-09-17T04:41:42;98607.47;;;10.68;89.51
22004;BME280;11166;48.692;8.182;2022-09-17T04:44:08;98612.06;;;10.59;90.50
22004;BME280;11166;48.692;8.182;2022-09-17T04:46:33;98619.66;;;10.61;92.61
22004;BME280;11166;48.692;8.182;2022-09-17T04:48:58;98613.84;;;10.59;92.50
22004;BME280;11166;48.692;8.182;2022-09-17T04:51:24;98609.47;;;10.59;93.45
22004;BME280;11166;48.692;8.182;2022-09-17T04:53:49;98608.06;;;10.70;94.10
22004;BME280;11166;48.692;8.182;2022-09-17T04:56:14;98617.06;;;10.61;92.18
22004;BME280;11166;48.692;8.182;2022-09-17T04:58:40;98610.66;;;10.70;93.35
22004;BME280;11166;48.692;8.182;2022-09-17T05:01:05;98619.44;;;10.82;93.72
22004;BME280;11166;48.692;8.182;2022-09-17T05:03:30;98621.44;;;10.60;90.55
22004;BME280;11166;48.692;8.182;2022-09-17T05:05:56;98614.25;;;10.56;91.45
22004;BME280;11166;48.692;8.182;2022-09-17T05:08:21;98622.63;;;10.58;93.35
22004;BME280;11166;48.692;8.182;2022-09-17T05:10:49;98624.25;;;10.65;92.68
22004;BME280;11166;48.692;8.182;2022-09-17T05:13:15;98619.03;;;10.59;90.92
22004;BME280;11166;48.692;8.182;2022-09-17T05:15:41;98625.41;;;10.56;91.35
22004;BME280;11166;48.692;8.182;2022-09-17T05:18:06;98631.41;;;10.57;91.38
22004;BME280;11166;48.692;8.182;2022-09-17T05:20:31;98635.19;;;10.48;92.14
22004;BME280;11166;48.692;8.182;2022-09-17T05:22:57;98624.63;;;10.56;92.98
22004;BME280;11166;48.692;8.182;2022-09-17T05:25:22;98632.41;;;10.56;91.52
22004;BME280;11166;48.692;8.182;2022-09-17T05:27:51;98633.81;;;10.58;90.49
22004;BME280;11166;48.692;8.182;2022-09-17T05:30:18;98636.59;;;10.44;90.74
22004;BME280;11166;48.692;8.182;2022-09-17T05:32:43;98619.63;;;10.35;91.61
22004;BME280;11166;48.692;8.182;2022-09-17T05:35:09;98633.00;;;10.45;93.22
22004;BME280;11166;48.692;8.182;2022-09-17T05:37:35;98628.22;;;10.55;91.79
22004;BME280;11166;48.692;8.182;2022-09-17T05:40:03;98637.41;;;10.51;90.67
22004;BME280;11166;48.692;8.182;2022-09-17T05:42:29;98635.59;;;10.58;92.25
22004;BME280;11166;48.692;8.182;2022-09-17T05:44:55;98650.19;;;10.59;90.85
22004;BME280;11166;48.692;8.182;2022-09-17T05:47:20;98648.97;;;10.48;89.79
22004;BME280;11166;48.692;8.182;2022-09-17T05:49:46;98652.56;;;10.54;91.67
22004;BME280;11166;48.692;8.182;2022-09-17T05:52:11;98646.97;;;10.50;90.61
22004;BME280;11166;48.692;8.182;2022-09-17T05:54:36;98647.56;;;10.52;92.92
22004;BME280;11166;48.692;8.182;2022-09-17T05:57:02;98649.75;;;10.55;92.28
22004;BME280;11166;48.692;8.182;2022-09-17T05:59:27;98648.16;;;10.54;92.50
22004;BME280;11166;48.692;8.182;2022-09-17T06:01:52;98655.56;;;10.71;93.71
22004;BME280;11166;48.692;8.182;2022-09-17T06:04:17;98657.75;;;10.80;92.21
22004;BME280;11166;48.692;8.182;2022-09-17T06:06:43;98658.97;;;10.78;91.69
22004;BME280;11166;48.692;8.182;2022-09-17T06:09:08;98652.16;;;10.70;91.74
22004;BME280;11166;48.692;8.182;2022-09-17T06:11:35;98659.34;;;10.81;92.25
22004;BME280;11166;48.692;8.182;2022-09-17T06:14:00;98668.56;;;10.90;89.99
22004;BME280;11166;48.692;8.182;2022-09-17T06:16:26;98665.34;;;10.88;90.36
22004;BME280;11166;48.692;8.182;2022-09-17T06:18:51;98672.94;;;10.83;89.57
22004;BME280;11166;48.692;8.182;2022-09-17T06:21:17;98671.75;;;10.79;90.10
22004;BME280;11166;48.692;8.182;2022-09-17T06:23:43;98675.34;;;10.91;91.29
22004;BME280;11166;48.692;8.182;2022-09-17T06:26:09;98672.53;;;10.86;89.12
22004;BME280;11166;48.692;8.182;2022-09-17T06:28:35;98666.56;;;10.79;89.93
22004;BME280;11166;48.692;8.182;2022-09-17T06:31:03;98670.34;;;10.70;89.58
22004;BME280;11166;48.692;8.182;2022-09-17T06:33:30;98665.75;;;10.59;91.24
22004;BME280;11166;48.692;8.182;2022-09-17T06:35:59;98670.50;;;10.55;90.76
22004;BME280;11166;48.692;8.182;2022-09-17T06:38:29;98671.28;;;10.43;90.38
22004;BME280;11166;48.692;8.182;2022-09-17T06:40:55;98673.28;;;10.41;91.22
22004;BME280;11166;48.692;8.182;2022-09-17T06:43:21;98670.13;;;10.39;90.91
22004;BME280;11166;48.692;8.182;2022-09-17T06:45:55;98675.28;;;10.39;90.36
22004;BME280;11166;48.692;8.182;2022-09-17T06:48:21;98674.50;;;10.38;91.19
22004;BME280;11166;48.692;8.182;2022-09-17T06:50:47;98677.91;;;10.39;92.17
22004;BME280;11166;48.692;8.182;2022-09-17T06:53:12;98679.88;;;10.37;90.94
22004;BME280;11166;48.692;8.182;2022-09-17T06:55:38;98680.09;;;10.48;93.03
22004;BME280;11166;48.692;8.182;2022-09-17T06:58:03;98679.28;;;10.48;91.00
22004;BME280;11166;48.692;8.182;2022-09-17T07:00:28;98672.91;;;10.57;91.48
22004;BME280;11166;48.692;8.182;2022-09-17T07:02:58;98686.84;;;10.43;89.41
22004;BME280;11166;48.692;8.182;2022-09-17T07:05:26;98695.63;;;10.42;90.91
22004;BME280;11166;48.692;8.182;2022-09-17T07:07:52;98690.84;;;10.39;90.08
22004;BME280;11166;48.692;8.182;2022-09-17T07:10:17;98689.03;;;10.32;90.84
22004;BME280;11166;48.692;8.182;2022-09-17T07:12:43;98692.66;;;10.45;91.99
22004;BME280;11166;48.692;8.182;2022-09-17T07:15:09;98697.03;;;10.38;90.79
22004;BME280;11166;48.692;8.182;2022-09-17T07:17:38;98700.03;;;10.41;91.14
22004;BME280;11166;48.692;8.182;2022-09-17T07:20:05;98698.44;;;10.53;92.33
22004;BME280;11166;48.692;8.182;2022-09-17T07:22:31;98704.25;;;10.55;89.49
22004;BME280;11166;48.692;8.182;2022-09-17T07:24:56;98695.66;;;10.48;90.10
22004;BME280;11166;48.692;8.182;2022-09-17T07:27:22;98699.69;;;10.64;92.46
22004;BME280;11166;48.692;8.182;2022-09-17T07:29:47;98708.47;;;10.89;92.45
22004;BME280;11166;48.692;8.182;2022-09-17T07:32:12;98719.47;;;10.78;89.01
22004;BME280;11166;48.692;8.182;2022-09-17T07:34:38;98721.06;;;10.92;93.22
22004;BME280;11166;48.692;8.182;2022-09-17T07:37:03;98730.06;;;11.03;93.12
22004;BME280;11166;48.692;8.182;2022-09-17T07:39:29;98725.28;;;11.20;94.49
22004;BME280;11166;48.692;8.182;2022-09-17T07:41:54;98722.44;;;11.08;90.11
22004;BME280;11166;48.692;8.182;2022-09-17T07:44:19;98725.44;;;11.12;92.51
22004;BME280;11166;48.692;8.182;2022-09-17T07:46:46;98719.66;;;11.23;92.17
22004;BME280;11166;48.692;8.182;2022-09-17T07:49:11;98724.25;;;11.21;94.52
22004;BME280;11166;48.692;8.182;2022-09-17T07:51:36;98728.03;;;11.38;94.49
22004;BME280;11166;48.692;8.182;2022-09-17T07:54:02;98732.38;;;11.64;93.31
22004;BME280;11166;48.692;8.182;2022-09-17T07:56:27;98724.44;;;11.39;88.84
22004;BME280;11166;48.692;8.182;2022-09-17T07:58:53;98728.41;;;11.61;93.41
22004;BME280;11166;48.692;8.182;2022-09-17T08:01:20;98730.22;;;11.61;90.20
22004;BME280;11166;48.692;8.182;2022-09-17T08:03:48;98728.03;;;11.58;90.90
22004;BME280;11166;48.692;8.182;2022-09-17T08:06:16;98734.97;;;11.77;93.37
22004;BME280;11166;48.692;8.182;2022-09-17T08:08:42;98735.53;;;11.99;93.45
22004;BME280;11166;48.692;8.182;2022-09-17T08:11:12;98735.59;;;11.79;87.97
22004;BME280;11166;48.692;8.182;2022-09-17T08:13:38;98735.81;;;11.51;88.59
22004;BME280;11166;48.692;8.182;2022-09-17T08:16:06;98738.00;;;11.54;92.38
22004;BME280;11166;48.692;8.182;2022-09-17T08:18:33;98733.63;;;11.61;90.37
22004;BME280;11166;48.692;8.182;2022-09-17T08:21:03;98736.78;;;11.77;93.04
22004;BME280;11166;48.692;8.182;2022-09-17T08:23:30;98744.19;;;11.86;92.34
22004;BME280;11166;48.692;8.182;2022-09-17T08:25:57;98743.97;;;11.88;89.20
22004;BME280;11166;48.692;8.182;2022-09-17T08:28:24;98741.34;;;12.01;91.08
22004;BME280;11166;48.692;8.182;2022-09-17T08:30:51;98733.84;;;12.24;92.04
22004;BME280;11166;48.692;8.182;2022-09-17T08:33:17;98734.25;;;12.21;88.47
22004;BME280;11166;48.692;8.182;2022-09-17T08:35:53;98745.09;;;12.05;86.66
22004;BME280;11166;48.692;8.182;2022-09-17T08:38:19;98744.38;;;11.85;87.97
22004;BME280;11166;48.692;8.182;2022-09-17T08:46:13;98753.38;;;11.69;88.10
22004;BME280;11166;48.692;8.182;2022-09-17T08:48:45;98758.56;;;11.69;90.68
22004;BME280;11166;48.692;8.182;2022-09-17T08:54:25;98756.38;;;11.72;92.35
22004;BME280;11166;48.692;8.182;2022-09-17T08:57:04;98759.78;;;11.66;90.06
22004;BME280;11166;48.692;8.182;2022-09-17T08:59:42;98773.59;;;11.54;89.98
22004;BME280;11166;48.692;8.182;2022-09-17T09:05:17;98768.41;;;11.60;88.64
22004;BME280;11166;48.692;8.182;2022-09-17T09:07:50;98763.56;;;11.77;91.66
22004;BME280;11166;48.692;8.182;2022-09-17T09:10:19;98766.19;;;11.84;91.41
22004;BME280;11166;48.692;8.182;2022-09-17T09:12:48;98765.56;;;11.88;91.66
22004;BME280;11166;48.692;8.182;2022-09-17T09:15:37;98761.38;;;11.87;90.02
22004;BME280;11166;48.692;8.182;2022-09-17T09:20:53;98762.84;;;12.21;91.54
22004;BME280;11166;48.692;8.182;2022-09-17T09:26:16;98760.91;;;12.55;87.69
22004;BME280;11166;48.692;8.182;2022-09-17T09:31:23;98753.94;;;12.49;85.32
22004;BME280;11166;48.692;8.182;2022-09-17T09:33:51;98769.66;;;12.67;87.26
22004;BME280;11166;48.692;8.182;2022-09-17T09:36:17;98759.06;;;12.62;83.25
22004;BME280;11166;48.692;8.182;2022-09-17T09:38:56;98759.72;;;12.57;85.84
22004;BME280;11166;48.692;8.182;2022-09-17T09:41:59;98766.13;;;12.48;84.60
22004;BME280;11166;48.692;8.182;2022-09-17T09:44:29;98757.66;;;12.59;85.53
22004;BME280;11166;48.692;8.182;2022-09-17T09:47:16;98766.06;;;12.61;83.24
22004;BME280;11166;48.692;8.182;2022-09-17T10:02:48;98760.59;;;13.57;84.26
22004;BME280;11166;48.692;8.182;2022-09-17T10:05:18;98759.53;;;13.83;85.08
22004;BME280;11166;48.692;8.182;2022-09-17T10:07:44;98757.88;;;14.07;83.58
22004;BME280;11166;48.692;8.182;2022-09-17T10:10:10;98761.56;;;13.99;78.23
22004;BME280;11166;48.692;8.182;2022-09-17T10:12:35;98759.75;;;14.00;78.20
22004;BME280;11166;48.692;8.182;2022-09-17T10:15:22;98753.38;;;13.96;80.73
22004;BME280;11166;48.692;8.182;2022-09-17T10:17:48;98751.22;;;13.93;79.19
22004;BME280;11166;48.692;8.182;2022-09-17T10:20:15;98756.56;;;13.79;78.91
22004;BME280;11166;48.692;8.182;2022-09-17T10:22:43;98754.44;;;13.70;79.48
22004;BME280;11166;48.692;8.182;2022-09-17T10:27:50;98758.13;;;13.62;78.38
22004;BME280;11166;48.692;8.182;2022-09-17T10:30:17;98757.13;;;13.81;80.81
22004;BME280;11166;48.692;8.182;2022-09-17T10:32:43;98750.44;;;14.22;82.85
22004;BME280;11166;48.692;8.182;2022-09-17T10:37:49;98760.19;;;14.33;75.42
22004;BME280;11166;48.692;8.182;2022-09-17T10:42:49;98754.59;;;14.48;75.23
22004;BME280;11166;48.692;8.182;2022-09-17T10:47:51;98761.00;;;15.05;75.68
22004;BME280;11166;48.692;8.182;2022-09-17T10:50:47;98760.09;;;15.00;71.54
22004;BME280;11166;48.692;8.182;2022-09-17T10:53:17;98749.16;;;14.91;73.71
22004;BME280;11166;48.692;8.182;2022-09-17T10:59:02;98737.72;;;15.15;74.95
22004;BME280;11166;48.692;8.182;2022-09-17T11:04:46;98737.75;;;15.39;76.97
22004;BME280;11166;48.692;8.182;2022-09-17T11:13:02;98723.97;;;15.78;74.12
22004;BME280;11166;48.692;8.182;2022-09-17T11:18:40;98723.50;;;16.33;74.04
22004;BME280;11166;48.692;8.182;2022-09-17T11:26:42;98702.28;;;15.66;75.11
22004;BME280;11166;48.692;8.182;2022-09-17T11:35:16;98703.44;;;16.10;71.25
